Time;durP1;ratioP1;P1;durP2;ratioP2;P2;SDS_P1;SDS_P2;PMS_P1;PMS_P2;Temp;Humidity;BMP_temperature;BMP_pressure;BME280_temperature;BME280_humidity;BME280_pressure;Samples;Min_cycle;Max_cycle;Signal;HPM_P1;HPM_P2
2021/11/14 00:02:12;;;;;;;18.40;10.00;;;;;;;6.91;96.48;101094.16;102269;1318;72503;-78
2021/11/14 00:05:25;;;;;;;16.50;8.70;;;;;;;6.92;96.52;101091.76;102111;1318;76249;-78
2021/11/14 00:08:47;;;;;;;;;;;;;;;;;;;;;
2021/11/14 00:11:28;;;;;;;;;;;;;;;;;;;;;
2021/11/14 00:14:26;;;;;;;;;;;;;;;;;;;;;
2021/11/14 00:17:32;;;;;;;;;;;;;;;;;;;;;
2021/11/14 00:20:40;;;;;;;;;;;;;;;6.90;96.77;101102.87;102644;1318;73273;-80
2021/11/14 00:23:54;;;;;;;25.10;11.00;;;;;;;6.89;96.74;101107.70;102417;1318;63048;-78
2021/11/14 00:26:53;;;;;;;19.30;12.70;;;;;;;6.89;96.78;101108.77;102325;1318;61273;-79
2021/11/14 00:30:21;;;;;;;18.20;10.30;;;;;;;6.90;96.54;101110.29;102365;1318;75004;-78
2021/11/14 00:33:17;;;;;;;16.30;10.60;;;;;;;6.91;96.79;101111.02;102039;1318;74180;-76
2021/11/14 00:36:39;;;;;;;17.60;12.20;;;;;;;6.91;96.81;101115.27;102178;1318;72754;-76
2021/11/14 00:39:51;;;;;;;;;;;;;;;;;;;;;
2021/11/14 00:43:20;;;;;;;18.70;9.20;;;;;;;6.88;97.02;101120.28;102107;1318;61300;-78
2021/11/14 00:47:13;;;;;;;19.50;9.70;;;;;;;6.85;97.01;101121.76;102341;1318;75225;-79
2021/11/14 00:49:39;;;;;;;19.40;9.80;;;;;;;6.84;97.11;101122.45;102280;1318;71591;-76
2021/11/14 00:52:27;;;;;;;;;;;;;;;;;;;;;
2021/11/14 00:55:46;;;;;;;18.50;10.20;;;;;;;6.82;97.41;101128.40;102293;1318;63253;-77
2021/11/14 00:59:02;;;;;;;18.20;9.10;;;;;;;6.87;97.58;101131.27;102257;1318;61334;-80
2021/11/14 01:02:18;;;;;;;20.60;9.60;;;;;;;6.89;97.58;101135.52;102395;1318;76979;-77
2021/11/14 01:05:26;;;;;;;20.10;10.10;;;;;;;6.91;97.36;101136.91;102377;1318;73506;-76
2021/11/14 01:08:49;;;;;;;17.90;10.60;;;;;;;6.93;97.67;101141.13;102237;1318;73013;-77
2021/11/14 01:11:58;;;;;;;17.70;10.00;;;;;;;6.95;97.38;101147.10;102206;1318;62495;-77
2021/11/14 01:15:05;;;;;;;15.70;9.00;;;;;;;6.95;97.16;101147.29;102277;1318;61213;-78
2021/11/14 01:17:57;;;;;;;17.10;9.50;;;;;;;6.96;97.46;101150.20;102446;1318;75038;-80
2021/11/14 01:21:12;;;;;;;16.60;9.10;;;;;;;6.99;97.69;101153.61;102463;1316;72633;-78
2021/11/14 01:24:36;;;;;;;18.80;10.00;;;;;;;7.00;97.40;101158.98;102487;1318;73019;-78
2021/11/14 01:27:15;;;;;;;;;;;;;;;;;;;;;
2021/11/14 01:30:19;;;;;;;16.50;9.20;;;;;;;7.02;97.22;101166.86;102393;1319;61327;-77
2021/11/14 01:33:30;;;;;;;;;;;;;;;;;;;;;
2021/11/14 01:36:33;;;;;;;;;;;;;;;;;;;;;
2021/11/14 01:39:26;;;;;;;18.90;10.10;;;;;;;7.03;97.36;101176.29;102226;1318;72931;-77
2021/11/14 01:42:43;;;;;;;18.20;9.80;;;;;;;7.04;97.15;101182.68;102261;1318;61435;-78
2021/11/14 01:45:59;;;;;;;;;;;;;;;;;;;;;
2021/11/14 01:49:11;;;;;;;17.00;9.80;;;;;;;7.02;97.30;101188.30;102560;1318;75906;-78
2021/11/14 01:52:43;;;;;;;18.60;10.70;;;;;;;7.00;97.64;101184.33;102346;1318;72484;-77
2021/11/14 01:56:07;;;;;;;18.90;10.20;;;;;;;6.98;97.66;101187.13;101969;1323;72863;-78
2021/11/14 01:59:24;;;;;;;21.40;11.20;;;;;;;6.98;97.78;101187.50;102196;1318;62485;-77
2021/11/14 02:02:18;;;;;;;16.30;8.90;;;;;;;6.97;97.94;101195.69;102295;1318;61465;-78
2021/11/14 02:05:27;;;;;;;21.10;11.50;;;;;;;6.95;97.95;101192.65;102609;1319;74967;-78
2021/11/14 02:08:57;;;;;;;23.20;11.10;;;;;;;6.94;97.92;101193.76;102385;1320;71387;-75
2021/11/14 02:11:43;;;;;;;;;;;;;;;;;;;;;
2021/11/14 02:14:13;;;;;;;20.10;10.40;;;;;;;6.94;98.44;101194.85;102549;1318;62245;-77
2021/11/14 02:17:02;;;;;;;;;;;;;;;;;;;;;
2021/11/14 02:20:31;;;;;;;23.10;10.20;;;;;;;6.99;98.55;101198.09;102286;1318;76298;-76
2021/11/14 02:23:33;;;;;;;;;;;;;;;;;;;;;
2021/11/14 02:27:04;;;;;;;20.90;10.60;;;;;;;6.99;98.58;101207.06;102462;1318;74880;-78
2021/11/14 02:30:22;;;;;;;;;;;;;;;;;;;;;
2021/11/14 02:33:41;;;;;;;;;;;;;;;;;;;;;
2021/11/14 02:36:31;;;;;;;15.50;9.50;;;;;;;7.00;98.87;101217.17;102311;1318;75978;-78
2021/11/14 02:39:03;;;;;;;18.80;10.30;;;;;;;6.97;98.85;101218.34;102371;1318;72456;-76
2021/11/14 02:41:39;;;;;;;19.30;10.70;;;;;;;6.91;98.55;101217.91;102469;1318;72974;-78
2021/11/14 02:45:07;;;;;;;21.00;11.50;;;;;;;6.89;98.73;101223.54;102529;1318;62354;-80
2021/11/14 02:47:48;;;;;;;25.20;11.90;;;;;;;6.84;98.59;101224.02;102210;1319;62534;-80
2021/11/14 02:50:30;;;;;;;;;;;;;;;;;;;;;
2021/11/14 02:53:07;;;;;;;18.20;10.40;;;;;;;6.80;99.09;101228.98;102387;1318;71764;-77
2021/11/14 02:56:15;;;;;;;;;;;;;;;;;;;;;
2021/11/14 02:59:42;;;;;;;;;;;;;;;;;;;;;
2021/11/14 03:02:41;;;;;;;19.10;11.60;;;;;;;6.74;99.65;101237.08;102267;1323;61205;-76
2021/11/14 03:05:55;;;;;;;19.80;10.80;;;;;;;6.73;99.87;101237.66;102268;1318;74904;-77
2021/11/14 03:09:23;;;;;;;19.80;11.30;;;;;;;6.73;99.96;101244.98;102508;1317;71382;-80
2021/11/14 03:12:02;;;;;;;;;;;;;;;;;;;;;
2021/11/14 03:15:18;;;;;;;22.50;12.50;;;;;;;6.77;99.97;101250.32;102235;1318;61670;-76
2021/11/14 03:18:41;;;;;;;18.90;11.70;;;;;;;6.78;99.80;101253.41;102093;1318;61312;-77
2021/11/14 03:21:52;;;;;;;;;;;;;;;;;;;;;
2021/11/14 03:24:44;;;;;;;28.50;13.00;;;;;;;6.79;99.96;101259.63;102573;1318;71549;-77
2021/11/14 03:28:01;;;;;;;;;;;;;;;;;;;;;
2021/11/14 03:31:23;;;;;;;;;;;;;;;;;;;;;
2021/11/14 03:34:32;;;;;;;21.80;11.40;;;;;;;6.83;100.00;101264.97;102209;1317;61422;-79
2021/11/14 03:37:42;;;;;;;;;;;;;;;;;;;;;
2021/11/14 03:40:43;;;;;;;21.90;11.70;;;;;;;6.85;100.00;101270.33;102296;1318;71465;-77
2021/11/14 03:44:00;;;;;;;;;;;;;;;;;;;;;
2021/11/14 03:47:00;;;;;;;25.60;12.50;;;;;;;6.87;100.00;101274.94;102287;1319;63375;-78
2021/11/14 03:50:27;;;;;;;20.50;11.80;;;;;;;6.90;100.00;101279.21;102350;1319;61372;-77
2021/11/14 03:53:26;;;;;;;;;;;;;;;;;;;;;
2021/11/14 03:56:43;;;;;;;22.10;12.20;;;;;;;6.92;100.00;101276.93;102458;1318;71453;-77
2021/11/14 03:59:39;;;;;;;;;;;;;;;;;;;;;
2021/11/14 04:02:57;;;;;;;21.40;12.40;;;;;;;6.92;100.00;101280.80;102381;1316;62440;-78
2021/11/14 04:06:24;;;;;;;21.50;12.10;;;;;;;6.93;100.00;101282.60;102472;1317;61807;-81
2021/11/14 04:12:18;;;;;;;22.10;11.80;;;;;;;6.95;100.00;101293.94;102381;1320;74013;-81
2021/11/14 04:15:19;;;;;;;16.80;9.70;;;;;;;6.92;100.00;101296.09;102453;1318;74198;-79
2021/11/14 04:18:38;;;;;;;22.30;11.00;;;;;;;6.90;100.00;101302.84;102483;1318;61693;-81
2021/11/14 04:21:45;;;;;;;;;;;;;;;;;;;;;
2021/11/14 04:24:44;;;;;;;;;;;;;;;;;;;;;
2021/11/14 04:27:12;;;;;;;25.70;12.60;;;;;;;6.88;100.00;101303.70;102260;1318;71207;-78
2021/11/14 04:30:40;;;;;;;25.50;12.30;;;;;;;6.92;100.00;101310.86;102435;1317;74159;-78
2021/11/14 04:33:19;;;;;;;24.50;12.50;;;;;;;6.97;100.00;101314.30;102372;1318;62264;-76
2021/11/14 04:36:12;;;;;;;25.10;12.10;;;;;;;6.98;100.00;101314.08;102302;1317;61624;-78
2021/11/14 04:39:18;;;;;;;27.80;14.10;;;;;;;6.99;100.00;101311.34;102264;1318;76061;-81
2021/11/14 04:42:02;;;;;;;27.80;12.60;;;;;;;7.00;100.00;101316.33;102219;1317;72699;-78
2021/11/14 04:45:17;;;;;;;;;;;;;;;;;;;;;
2021/11/14 04:48:46;;;;;;;30.70;13.40;;;;;;;7.01;100.00;101318.92;102582;1318;62058;-78
2021/11/14 04:51:54;;;;;;;21.80;12.10;;;;;;;7.00;100.00;101319.02;102234;1319;61277;-78
2021/11/14 04:55:22;;;;;;;25.90;12.10;;;;;;;6.98;100.00;101321.10;102271;1317;75095;-76
2021/11/14 04:58:11;;;;;;;26.10;11.30;;;;;;;6.97;100.00;101326.48;101994;1319;71564;-78
2021/11/14 05:01:25;;;;;;;25.20;12.40;;;;;;;6.97;100.00;101330.86;102354;1318;73999;-78
2021/11/14 05:04:35;;;;;;;25.30;11.60;;;;;;;6.98;100.00;101335.54;102408;1318;62276;-78
2021/11/14 05:07:45;;;;;;;25.30;12.20;;;;;;;6.97;100.00;101340.56;102352;1317;61420;-81
2021/11/14 05:11:13;;;;;;;26.00;11.50;;;;;;;7.01;100.00;101344.06;102226;1318;76561;-78
2021/11/14 05:14:29;;;;;;;23.00;11.20;;;;;;;7.04;100.00;101345.16;102250;1318;72744;-76
2021/11/14 05:17:56;;;;;;;27.80;13.10;;;;;;;7.04;100.00;101348.88;102415;1318;72963;-78
2021/11/14 05:20:44;;;;;;;27.70;12.70;;;;;;;7.03;100.00;101355.45;102252;1318;63493;-76
2021/11/14 05:23:52;;;;;;;20.70;10.10;;;;;;;7.03;100.00;101361.11;102362;1318;60530;-78
2021/11/14 05:27:00;;;;;;;28.70;12.40;;;;;;;7.01;100.00;101364.05;102497;1315;75178;-80
2021/11/14 05:30:30;;;;;;;28.30;14.20;;;;;;;7.00;100.00;101366.45;102337;1319;70437;-78
2021/11/14 05:33:15;;;;;;;24.00;12.00;;;;;;;6.99;100.00;101373.73;102505;1318;75663;-80
2021/11/14 05:36:33;;;;;;;34.80;13.40;;;;;;;6.98;100.00;101374.21;102520;1318;62240;-78
2021/11/14 05:40:00;;;;;;;33.20;14.60;;;;;;;6.99;100.00;101378.90;102140;1319;61334;-75
2021/11/14 05:42:50;;;;;;;28.90;12.80;;;;;;;7.01;100.00;101381.85;102403;1315;76068;-78
2021/11/14 05:46:08;;;;;;;30.80;13.40;;;;;;;6.99;100.00;101381.48;102418;1318;72791;-78
2021/11/14 05:49:08;;;;;;;;;;;;;;;;;;;;;
2021/11/14 05:51:58;;;;;;;28.20;12.50;;;;;;;6.98;100.00;101385.98;102265;1318;62368;-77
2021/11/14 05:55:20;;;;;;;29.00;13.50;;;;;;;6.99;100.00;101392.79;102387;1318;61225;-77
2021/11/14 06:05:33;;;;;;;25.40;12.70;;;;;;;7.04;100.00;101411.67;102005;1318;74565;-78
2021/11/14 06:12:00;;;;;;;;;;;;;;;;;;;;;
2021/11/14 06:14:54;;;;;;;28.50;13.20;;;;;;;7.07;100.00;101422.48;102324;1318;75980;-78
2021/11/14 06:18:02;;;;;;;28.40;12.70;;;;;;;7.07;100.00;101423.91;102383;1318;71477;-76
2021/11/14 06:21:30;;;;;;;27.40;13.00;;;;;;;7.07;100.00;101429.89;102242;1318;72927;-76
2021/11/14 06:24:16;;;;;;;;;;;;;;;;;;;;;
2021/11/14 06:27:25;;;;;;;21.50;10.60;;;;;;;7.07;100.00;101440.95;102412;1317;76421;-77
2021/11/14 06:30:40;;;;;;;27.20;12.00;;;;;;;7.07;100.00;101447.47;102284;1317;71562;-80
2021/11/14 06:33:48;;;;;;;29.30;13.10;;;;;;;7.07;100.00;101460.80;102383;1318;72961;-80
2021/11/14 06:37:16;;;;;;;30.30;12.90;;;;;;;7.10;100.00;101468.48;102439;1318;62328;-77
2021/11/14 06:40:22;;;;;;;27.20;12.90;;;;;;;7.12;100.00;101474.45;102089;1318;62324;-77
2021/11/14 06:43:08;;;;;;;24.10;11.80;;;;;;;7.14;100.00;101479.52;102329;1318;74981;-80
2021/11/14 06:45:58;;;;;;;30.30;13.10;;;;;;;7.15;100.00;101481.08;102558;1318;71271;-77
2021/11/14 06:49:04;;;;;;;;;;;;;;;;;;;;;
2021/11/14 06:51:41;;;;;;;27.30;13.20;;;;;;;7.17;100.00;101488.42;102579;1317;62013;-78
2021/11/14 06:55:00;;;;;;;24.20;12.50;;;;;;;7.18;100.00;101495.17;102315;1317;61235;-78
2021/11/14 06:58:18;;;;;;;;;;;;;;;;;;;;;
2021/11/14 07:01:27;;;;;;;;;;;;;;;;;;;;;
2021/11/14 07:03:54;;;;;;;29.00;11.80;;;;;;;7.19;100.00;101502.23;102383;1318;72603;-78
2021/11/14 07:06:41;;;;;;;31.20;11.70;;;;;;;7.20;100.00;101505.45;102365;1317;63314;-78
2021/11/14 07:09:23;;;;;;;28.20;12.20;;;;;;;7.22;100.00;101503.25;102359;1318;61348;-77
2021/11/14 07:12:23;;;;;;;;;;;;;;;;;;;;;
2021/11/14 07:15:26;;;;;;;28.90;12.70;;;;;;;7.26;100.00;101515.16;102175;1318;72234;-75
2021/11/14 07:18:19;;;;;;;28.80;12.00;;;;;;;7.30;100.00;101519.88;102250;1318;74528;-76
2021/11/14 07:21:47;;;;;;;;;;;;;;;;;;;;;
2021/11/14 07:25:19;;;;;;;29.70;13.70;;;;;;;7.38;100.00;101538.71;102472;1318;60770;-76
2021/11/14 07:28:10;;;;;;;28.00;12.30;;;;;;;7.42;100.00;101547.35;102299;1318;76023;-75
2021/11/14 07:31:27;;;;;;;31.40;13.90;;;;;;;7.40;100.00;101547.87;102604;1318;71694;-79
2021/11/14 07:34:35;;;;;;;32.30;14.40;;;;;;;7.41;100.00;101554.84;102405;1317;72885;-77
2021/11/14 07:38:03;;;;;;;22.60;11.40;;;;;;;7.42;99.99;101558.94;102482;1317;63559;-78
2021/11/14 07:40:48;;;;;;;;;;;;;;;;;;;;;
2021/11/14 07:43:26;;;;;;;;;;;;;;;;;;;;;
2021/11/14 07:46:50;;;;;;;31.30;13.50;;;;;;;7.42;99.70;101568.98;102386;1315;71407;-77
2021/11/14 07:49:50;;;;;;;31.60;14.40;;;;;;;7.43;99.84;101572.38;102459;1318;72981;-76
2021/11/14 07:53:19;;;;;;;26.30;12.90;;;;;;;7.47;99.90;101577.88;102277;1318;62655;-77
2021/11/14 07:56:37;;;;;;;33.00;14.30;;;;;;;7.48;99.82;101581.45;102421;1318;62139;-79
2021/11/14 07:59:38;;;;;;;27.20;13.20;;;;;;;7.50;99.71;101583.06;101988;1318;77063;-78
2021/11/14 08:02:38;;;;;;;;;;;;;;;;;;;;;
2021/11/14 08:05:52;;;;;;;25.70;13.30;;;;;;;7.55;99.75;101590.02;102446;1318;73032;-76
2021/11/14 08:09:13;;;;;;;28.30;14.20;;;;;;;7.58;99.69;101593.13;102076;1318;61388;-77
2021/11/14 08:12:30;;;;;;;;;;;;;;;;;;;;;
2021/11/14 08:15:44;;;;;;;17.30;9.40;;;;;;;7.59;99.23;101605.75;102647;1318;75208;-77
2021/11/14 08:18:45;;;;;;;;;;;;;;;;;;;;;
2021/11/14 08:21:35;;;;;;;25.30;13.60;;;;;;;7.60;99.23;101615.69;102502;1318;71923;-77
2021/11/14 08:25:03;;;;;;;;;;;;;;;;;;;;;
2021/11/14 08:28:04;;;;;;;;;;;;;;;;;;;;;
2021/11/14 08:31:20;;;;;;;;;;;;;;;;;;;;;
2021/11/14 08:34:52;;;;;;;28.00;14.20;;;;;;;7.68;98.31;101620.72;102140;1318;72508;-76
2021/11/14 08:38:20;;;;;;;30.10;15.10;;;;;;;7.75;98.67;101625.09;102416;1318;74102;-80
2021/11/14 08:41:05;;;;;;;24.40;12.40;;;;;;;7.81;98.39;101629.36;102551;1318;61813;-77
2021/11/14 08:44:05;;;;;;;;;;;;;;;;;;;;;
2021/11/14 08:47:34;;;;;;;19.50;10.50;;;;;;;7.86;98.01;101640.14;102273;1318;75114;-76
2021/11/14 08:51:01;;;;;;;19.00;10.60;;;;;;;7.89;97.77;101640.08;102117;1318;71543;-76
2021/11/14 08:54:12;;;;;;;;;;;;;;;;;;;;;
2021/11/14 08:57:20;;;;;;;;;;;;;;;;;;;;;
2021/11/14 09:00:30;;;;;;;19.60;9.90;;;;;;;8.02;97.27;101650.88;102465;1318;60571;-79
2021/11/14 09:03:49;;;;;;;22.50;12.30;;;;;;;8.07;97.01;101650.64;102593;1318;75616;-76
2021/11/14 09:06:39;;;;;;;;;;;;;;;;;;;;;
2021/11/14 09:09:22;;;;;;;24.90;13.30;;;;;;;8.21;96.96;101660.70;102338;1318;73150;-78
2021/11/14 09:12:03;;;;;;;;;;;;;;;;;;;;;
2021/11/14 09:15:32;;;;;;;18.60;10.90;;;;;;;8.33;96.54;101668.98;102382;1318;61407;-76
2021/11/14 09:18:59;;;;;;;;;;;;;;;;;;;;;
2021/11/14 09:22:02;;;;;;;26.10;13.90;;;;;;;8.40;95.98;101681.59;102358;1317;71533;-77
2021/11/14 09:25:29;;;;;;;27.10;13.10;;;;;;;8.42;95.54;101687.42;102538;1318;73108;-77
2021/11/14 09:28:09;;;;;;;29.50;13.30;;;;;;;8.47;95.83;101690.52;102292;1318;62276;-76
2021/11/14 09:31:12;;;;;;;;;;;;;;;;;;;;;
2021/11/14 09:33:57;;;;;;;24.40;13.10;;;;;;;8.52;95.11;101700.66;102552;1314;76059;-78
2021/11/14 09:36:59;;;;;;;19.70;11.40;;;;;;;8.52;95.18;101701.14;102453;1315;71393;-77
2021/11/14 09:39:29;;;;;;;27.60;13.40;;;;;;;8.50;94.90;101702.36;102376;1318;74373;-77
2021/11/14 09:42:17;;;;;;;15.40;7.80;;;;;;;8.50;95.11;101706.12;102533;1315;61914;-80
2021/11/14 09:44:46;;;;;;;24.90;13.80;;;;;;;8.47;94.65;101712.16;102458;1318;61265;-76
2021/11/14 09:48:15;;;;;;;30.30;15.80;;;;;;;8.49;94.92;101711.13;102401;1318;74870;-78
2021/11/14 09:51:42;;;;;;;28.20;14.60;;;;;;;8.53;94.88;101719.23;102274;1318;72656;-76
2021/11/14 09:54:40;;;;;;;;;;;;;;;;;;;;;
2021/11/14 09:57:56;;;;;;;;;;;;;;;;;;;;;
2021/11/14 10:01:18;;;;;;;;;;;;;;;;;;;;;
2021/11/14 10:04:47;;;;;;;27.30;14.40;;;;;;;8.63;94.06;101721.00;102164;1316;74961;-76
2021/11/14 10:07:43;;;;;;;;;;;;;;;;;;;;;
2021/11/14 10:10:36;;;;;;;22.10;12.40;;;;;;;8.68;94.03;101727.45;102561;1318;71857;-76
2021/11/14 10:13:46;;;;;;;;;;;;;;;;;;;;;
2021/11/14 10:16:41;;;;;;;23.00;11.50;;;;;;;8.67;93.67;101732.09;102373;1318;61297;-76
2021/11/14 10:19:52;;;;;;;25.20;13.50;;;;;;;8.67;93.53;101730.84;102403;1318;74976;-79
2021/11/14 10:23:10;;;;;;;20.70;11.00;;;;;;;8.65;93.65;101727.33;101935;1318;71464;-77
2021/11/14 10:26:31;;;;;;;23.20;11.70;;;;;;;8.62;92.88;101731.38;102206;1319;72875;-77
2021/11/14 10:29:59;;;;;;;26.80;12.50;;;;;;;8.60;93.44;101727.59;102336;1318;62232;-78
2021/11/14 10:33:19;;;;;;;30.30;13.70;;;;;;;8.62;92.89;101730.41;102187;1318;61589;-77
2021/11/14 10:36:49;;;;;;;19.70;10.90;;;;;;;8.62;93.00;101732.02;102097;1318;74810;-76
2021/11/14 10:40:19;;;;;;;20.20;11.10;;;;;;;8.60;93.08;101732.94;101940;1318;71397;-76
2021/11/14 10:43:30;;;;;;;23.70;13.20;;;;;;;8.56;92.75;101734.98;101960;1318;72936;-78
2021/11/14 10:46:45;;;;;;;25.60;13.10;;;;;;;8.53;93.29;101734.72;102309;1321;61372;-78
2021/11/14 10:49:27;;;;;;;30.80;14.90;;;;;;;8.56;93.54;101738.04;102263;1318;61368;-78
2021/11/14 10:52:19;;;;;;;28.50;14.80;;;;;;;8.58;93.38;101739.40;102320;1318;76265;-76
2021/11/14 10:55:19;;;;;;;25.60;13.20;;;;;;;8.56;93.15;101737.64;102259;1318;71733;-79
2021/11/14 10:57:50;;;;;;;28.50;14.70;;;;;;;8.53;93.38;101738.26;102209;1318;72826;-76
2021/11/14 11:00:21;;;;;;;32.90;16.70;;;;;;;8.54;93.49;101737.77;102253;1318;63310;-76
2021/11/14 11:02:48;;;;;;;28.10;15.20;;;;;;;8.56;93.49;101742.58;102350;1318;60297;-76
2021/11/14 11:05:47;;;;;;;26.00;13.00;;;;;;;8.55;93.62;101747.75;102241;1318;76190;-76
2021/11/14 11:09:19;;;;;;;20.00;10.90;;;;;;;8.53;93.08;101747.84;102351;1318;73431;-78
2021/11/14 11:11:56;;;;;;;31.20;14.10;;;;;;;8.49;92.90;101747.07;102319;1318;72956;-77
2021/11/14 11:15:36;;;;;;;28.20;15.20;;;;;;;8.49;93.21;101746.77;102363;1318;62449;-76
2021/11/14 11:18:49;;;;;;;31.50;14.60;;;;;;;8.50;93.42;101751.75;101985;1318;61498;-77
2021/11/14 11:21:19;;;;;;;30.90;15.30;;;;;;;8.55;93.69;101749.23;102294;1318;74949;-78
2021/11/14 11:24:50;;;;;;;27.30;14.00;;;;;;;8.57;93.18;101751.30;102447;1318;71521;-78
2021/11/14 11:27:18;;;;;;;27.30;12.50;;;;;;;8.59;93.21;101750.69;102476;1318;75636;-76
2021/11/14 11:29:59;;;;;;;26.40;14.00;;;;;;;8.57;93.16;101753.10;102373;1318;61414;-76
2021/11/14 11:32:48;;;;;;;27.20;13.60;;;;;;;8.57;92.94;101753.23;102383;1318;61338;-77
2021/11/14 11:35:45;;;;;;;;;;;;;;;;;;;;;
2021/11/14 11:38:43;;;;;;;;;;;;;;;;;;;;;
2021/11/14 11:41:11;;;;;;;27.00;13.00;;;;;;;8.58;93.13;101760.23;102194;1316;72988;-76
2021/11/14 11:43:39;;;;;;;24.90;13.00;;;;;;;8.60;92.97;101760.98;102338;1318;61374;-75
2021/11/14 11:46:47;;;;;;;;;;;;;;;;;;;;;
2021/11/14 11:49:33;;;;;;;22.90;11.40;;;;;;;8.61;92.81;101761.59;102418;1318;76150;-77
2021/11/14 11:52:09;;;;;;;26.10;11.60;;;;;;;8.57;92.50;101761.67;102309;1317;72462;-77
2021/11/14 11:55:01;;;;;;;25.50;12.80;;;;;;;8.57;92.43;101765.23;102194;1318;74019;-77
2021/11/14 11:57:28;;;;;;;24.50;13.70;;;;;;;8.57;92.60;101773.04;102477;1318;62999;-76
2021/11/14 12:00:21;;;;;;;20.30;10.70;;;;;;;8.58;92.76;101776.11;102421;1314;61298;-75
2021/11/14 12:03:40;;;;;;;23.80;12.10;;;;;;;8.55;92.31;101773.51;102577;1318;76530;-75
2021/11/14 12:06:57;;;;;;;18.50;10.60;;;;;;;8.50;92.71;101780.52;102350;1318;72541;-77
2021/11/14 12:09:26;;;;;;;21.50;12.10;;;;;;;8.44;92.92;101782.65;102290;1318;73817;-77
2021/11/14 12:12:18;;;;;;;24.70;10.40;;;;;;;8.41;92.72;101789.39;102422;1316;61863;-76
2021/11/14 12:14:49;;;;;;;23.70;12.40;;;;;;;8.39;92.81;101789.17;102143;1316;61846;-76
2021/11/14 12:18:05;;;;;;;24.90;13.70;;;;;;;8.40;93.33;101790.16;102342;1318;75878;-78
2021/11/14 12:20:51;;;;;;;25.00;12.10;;;;;;;8.43;93.34;101792.05;102168;1321;71655;-77
2021/11/14 12:23:35;;;;;;;24.30;11.60;;;;;;;8.44;93.37;101793.92;102572;1318;72232;-76
2021/11/14 12:26:30;;;;;;;18.20;10.40;;;;;;;8.43;93.14;101793.09;102406;1318;61399;-77
2021/11/14 12:29:00;;;;;;;23.70;13.20;;;;;;;8.41;93.00;101795.55;102509;1318;61646;-76
2021/11/14 12:32:04;;;;;;;;;;;;;;;;;;;;;
2021/11/14 12:34:35;;;;;;;27.10;13.80;;;;;;;8.41;92.92;101799.45;102352;1318;72631;-76
2021/11/14 12:37:30;;;;;;;33.20;16.30;;;;;;;8.41;92.76;101799.79;102622;1318;74119;-75
2021/11/14 12:40:13;;;;;;;25.70;11.60;;;;;;;8.41;92.84;101803.46;102582;1318;62629;-76
2021/11/14 12:42:48;;;;;;;29.70;14.60;;;;;;;8.39;92.57;101806.42;103141;1318;63206;-77
2021/11/14 12:46:00;;;;;;;31.30;16.50;;;;;;;8.37;92.87;101811.18;102593;1318;76332;-79
2021/11/14 12:48:34;;;;;;;29.00;15.50;;;;;;;8.36;92.92;101812.73;102428;1318;70865;-77
2021/11/14 12:51:03;;;;;;;32.40;16.60;;;;;;;8.34;92.64;101812.70;102479;1319;74014;-77
2021/11/14 12:54:11;;;;;;;28.90;15.50;;;;;;;8.32;92.85;101808.95;102498;1318;61443;-76
2021/11/14 12:56:42;;;;;;;19.20;9.50;;;;;;;8.32;92.68;101812.41;102356;1318;62494;-77
2021/11/14 12:59:57;;;;;;;33.00;16.60;;;;;;;8.30;92.87;101811.67;102558;1318;76060;-79
2021/11/14 13:02:30;;;;;;;29.50;14.70;;;;;;;8.30;93.24;101816.80;102300;1318;72578;-77
2021/11/14 13:05:52;;;;;;;26.00;13.50;;;;;;;8.29;93.14;101819.11;102612;1318;73964;-78
2021/11/14 13:08:33;;;;;;;32.90;16.20;;;;;;;8.30;93.54;101819.61;102278;1318;61957;-76
2021/11/14 13:11:07;;;;;;;28.40;14.70;;;;;;;8.29;93.43;101816.98;102586;1318;61562;-77
2021/11/14 13:13:39;;;;;;;28.20;15.00;;;;;;;8.26;93.31;101812.73;102427;1318;75299;-79
2021/11/14 13:16:32;;;;;;;23.50;13.10;;;;;;;8.22;93.06;101814.81;102607;1317;71612;-79
2021/11/14 13:19:07;;;;;;;32.30;15.80;;;;;;;8.17;93.39;101813.63;102330;1321;73132;-77
2021/11/14 13:22:21;;;;;;;33.20;15.70;;;;;;;8.16;93.44;101812.84;102507;1318;62212;-80
2021/11/14 13:25:01;;;;;;;39.70;20.10;;;;;;;8.14;93.62;101817.23;102218;1318;61300;-76
2021/11/14 13:27:31;;;;;;;37.50;18.10;;;;;;;8.14;93.82;101815.33;102392;1318;75166;-78
2021/11/14 13:30:30;;;;;;;35.20;17.50;;;;;;;8.13;93.59;101814.65;102302;1318;71458;-77
2021/11/14 13:33:01;;;;;;;37.80;18.40;;;;;;;8.12;93.67;101816.69;102529;1318;73132;-78
2021/11/14 13:35:33;;;;;;;22.30;11.60;;;;;;;8.11;94.09;101824.19;102476;1318;61689;-79
2021/11/14 13:38:39;;;;;;;21.90;11.80;;;;;;;8.08;93.84;101819.36;103005;1318;61787;-80
2021/11/14 13:41:34;;;;;;;37.40;17.50;;;;;;;8.02;94.07;101819.89;102540;1318;75670;-77
2021/11/14 13:44:04;;;;;;;36.20;17.30;;;;;;;7.97;94.39;101815.02;102305;1318;71416;-77
2021/11/14 13:46:36;;;;;;;31.00;14.60;;;;;;;7.94;94.11;101821.08;102437;1318;73148;-75
2021/11/14 13:49:03;;;;;;;32.10;16.00;;;;;;;7.91;94.08;101820.80;102390;1318;61367;-76
2021/11/14 13:51:44;;;;;;;;;;;;;;;;;;;;;
2021/11/14 13:54:21;;;;;;;32.00;14.90;;;;;;;7.86;94.06;101835.80;102308;1318;74963;-80
2021/11/14 13:56:53;;;;;;;35.90;17.90;;;;;;;7.82;94.20;101841.49;102323;1316;71458;-77
2021/11/14 13:59:23;;;;;;;33.70;16.00;;;;;;;7.78;94.49;101843.35;102381;1318;73015;-77
2021/11/14 14:02:08;;;;;;;;;;;;;;;;;;;;;
2021/11/14 14:05:00;;;;;;;33.60;17.50;;;;;;;7.73;94.69;101848.84;102324;1318;61231;-77
2021/11/14 14:07:52;;;;;;;59.10;27.70;;;;;;;7.72;94.36;101849.64;102233;1318;75078;-79
2021/11/14 14:10:27;;;;;;;38.40;17.40;;;;;;;7.70;95.09;101848.61;102019;1318;71486;-76
2021/11/14 14:13:14;;;;;;;32.70;16.20;;;;;;;7.70;95.01;101846.18;102539;1318;72932;-79
2021/11/14 14:15:52;;;;;;;40.20;18.40;;;;;;;7.69;94.95;101848.17;102292;1318;62281;-77
2021/11/14 14:18:24;;;;;;;37.40;17.50;;;;;;;7.68;94.84;101849.27;102299;1318;61223;-77
2021/11/14 14:21:23;;;;;;;44.20;20.10;;;;;;;7.67;95.09;101851.45;102367;1318;76116;-75
2021/11/14 14:24:00;;;;;;;32.50;15.60;;;;;;;7.68;95.31;101853.34;98409;1318;5434203;-76
2021/11/14 14:26:41;;;;;;;35.90;16.80;;;;;;;7.67;95.41;101860.69;102582;1318;74270;-78
2021/11/14 14:29:39;;;;;;;;;;;;;;;;;;;;;
2021/11/14 14:32:38;;;;;;;36.20;18.30;;;;;;;7.67;95.45;101870.89;102276;1318;61335;-77
2021/11/14 14:35:17;;;;;;;35.30;16.40;;;;;;;7.66;95.18;101877.63;102462;1319;74931;-81
2021/11/14 14:38:12;;;;;;;36.00;17.30;;;;;;;7.64;95.02;101878.68;102554;1318;71569;-78
2021/11/14 14:40:48;;;;;;;32.90;15.40;;;;;;;7.63;95.24;101880.17;102357;1318;72121;-79
2021/11/14 14:43:58;;;;;;;35.20;15.60;;;;;;;7.63;95.14;101883.90;102663;1318;63254;-77
2021/11/14 14:47:10;;;;;;;36.40;15.50;;;;;;;7.63;95.64;101892.70;102528;1318;61244;-76
2021/11/14 14:49:38;;;;;;;28.70;13.70;;;;;;;7.63;95.04;101899.55;102501;1318;75902;-77
2021/11/14 14:52:40;;;;;;;32.70;15.40;;;;;;;7.60;95.26;101903.98;102437;1318;71358;-77
2021/11/14 14:55:59;;;;;;;31.90;13.80;;;;;;;7.59;95.25;101910.59;102407;1318;72989;-79
2021/11/14 14:58:25;;;;;;;17.70;9.60;;;;;;;7.55;95.29;101910.71;102582;1318;61584;-77
2021/11/14 15:01:33;;;;;;;31.70;13.90;;;;;;;7.51;94.84;101913.38;102526;1318;60600;-78
2021/11/14 15:04:25;;;;;;;32.20;14.40;;;;;;;7.48;95.40;101912.04;102583;1318;74701;-77
2021/11/14 15:07:14;;;;;;;25.40;12.00;;;;;;;7.46;95.34;101916.98;102427;1317;72469;-77
2021/11/14 15:10:27;;;;;;;25.90;12.80;;;;;;;7.42;95.73;101914.82;102464;1318;72893;-77
2021/11/14 15:13:35;;;;;;;25.40;11.70;;;;;;;7.40;95.90;101919.39;102433;1317;62150;-80
2021/11/14 15:16:56;;;;;;;28.90;12.50;;;;;;;7.40;96.13;101921.35;102483;1318;61340;-78
2021/11/14 15:19:34;;;;;;;38.20;15.10;;;;;;;7.38;95.80;101922.91;102595;1313;75193;-79
2021/11/14 15:22:23;;;;;;;27.90;13.00;;;;;;;7.36;96.02;101927.79;102419;1318;71668;-78
2021/11/14 15:25:15;;;;;;;35.50;14.10;;;;;;;7.33;96.30;101927.98;102757;1321;72900;-80
2021/11/14 15:27:54;;;;;;;28.40;13.10;;;;;;;7.32;96.37;101931.08;102559;1315;64084;-80
2021/11/14 15:30:37;;;;;;;;;;;;;;;;;;;;;
2021/11/14 15:33:55;;;;;;;;;;;;;;;;;;;;;
2021/11/14 15:36:26;;;;;;;27.20;12.40;;;;;;;7.31;97.04;101929.55;102356;1318;71628;-79
2021/11/14 15:39:09;;;;;;;;;;;;;;;;;;;;;
2021/11/14 15:41:39;;;;;;;32.30;13.00;;;;;;;7.28;97.14;101933.54;102464;1318;61843;-76